Sea Explorer — 5BQC3 — position and weather

sailwx.info

Track history (hours):
 
Tides and Currents Weather Stations Pressure Air Temp Water Temp Dewpoint Dewpoint Depression Visibility Wind Speed Wind Dir Waves Ship Positions

Sea Explorer

Last reported at 2018-Jun-14 06:39 UTC. Time now 2018-Jun-21 22:09 UTC.
Position N 36°56' E 002°30'.

Length 110 m; draft 7 m.

Type: Cargo ship. MMSI: 210112000.

Date/timePositionNaut miles runAvg speedWind from/ knotsBaromVisibWave heightAir tempDewpointWater temp
2018-Jun-14 06:39N 36°56' E 002°30'4613.5
2018-Jun-14 03:14N 36°49' E 001°32'313.6
2018-Jun-14 03:00N 36°48' E 001°29'813.6
2018-Jun-14 02:26N 36°47' E 001°19'613.5
2018-Jun-14 01:59N 36°46' E 001°11'613.3
2018-Jun-14 01:30N 36°45' E 001°04'713.3
2018-Jun-14 01:00N 36°42' E 000°56'3013.2
2018-Jun-13 22:44N 36°25' E 000°26'513.4
2018-Jun-13 22:21N 36°22' E 000°20'1013.3
2018-Jun-13 21:37N 36°18' E 000°10'213.1
2018-Jun-13 21:30N 36°17' E 000°08'3 5.4
2018-Jun-13 21:00N 36°15' E 000°05'  
2018-Jun-10 00:26N 36°00' W 005°07'614.0
2018-Jun-10 00:00N 35°59' W 005°15'714.2
2018-Jun-09 23:30N 35°58' W 005°23'813.2
2018-Jun-09 22:53N 35°55' W 005°33'283 9.7
2018-Jun-08 17:47N 38°57' W 010°06'311.1
2018-Jun-08 17:29N 39°00' W 010°06'511.4
2018-Jun-08 17:00N 39°06' W 010°06'611.4
2018-Jun-08 16:27N 39°12' W 010°06'  
2018-Jun-06 09:33N 48°54' W 005°42'9611.6
2018-Jun-06 01:19N 49°44' W 003°37'711.3
2018-Jun-06 00:41N 49°47' W 003°27'211.1
2018-Jun-06 00:30N 49°48' W 003°25'510.9
2018-Jun-06 00:00N 49°51' W 003°17'510.8
2018-Jun-05 23:30N 49°54' W 003°10'510.6
2018-Jun-05 22:59N 49°56' W 003°03'510.8
2018-Jun-05 22:30N 49°59' W 002°55'610.9
2018-Jun-05 21:56N 50°01' W 002°46'3812.4
2018-Jun-05 18:52N 50°12' W 001°50'513.9
2018-Jun-05 18:31N 50°13' W 001°42'713.9
2018-Jun-05 18:00N 50°15' W 001°31'813.9
2018-Jun-05 17:28N 50°17' W 001°20'713.8
2018-Jun-05 16:59N 50°18' W 001°10'3212.2
2018-Jun-05 14:22N 50°27' W 000°22'1510.6
2018-Jun-05 12:56N 50°31' E 000°01'410.4
2018-Jun-05 12:30N 50°32' E 000°08'610.5
2018-Jun-05 11:58N 50°34' E 000°17'510.8
2018-Jun-05 11:28N 50°36' E 000°25'511.3
2018-Jun-05 11:00N 50°37' E 000°32'611.9
2018-Jun-05 10:30N 50°40' E 000°41'612.5
2018-Jun-05 10:00N 50°44' E 000°49'712.9
2018-Jun-05 09:30N 50°48' E 000°57'1913.2
2018-Jun-05 08:02N 51°00' E 001°20'012.9
2018-Jun-05 08:00N 51°01' E 001°21'612.6
2018-Jun-05 07:31N 51°05' E 001°28'611.8
2018-Jun-05 07:00N 51°08' E 001°36'510.9
2018-Jun-05 06:30N 51°12' E 001°42'510.5
2018-Jun-05 06:00N 51°16' E 001°47'510.4
2018-Jun-05 05:30N 51°21' E 001°51'510.5
2018-Jun-05 05:00N 51°26' E 001°54'510.7
2018-Jun-05 04:30N 51°30' E 001°59'611.1
2018-Jun-05 03:58N 51°35' E 002°06'511.4
2018-Jun-05 03:30N 51°38' E 002°12'711.4
2018-Jun-05 02:52N 51°44' E 002°19'511.9
2018-Jun-05 02:30N 51°47' E 002°24'912.5
2018-Jun-05 01:47N 51°54' E 002°33'412.9
2018-Jun-05 01:29N 51°57' E 002°37'612.8
2018-Jun-05 01:00N 52°01' E 002°45'713.1
2018-Jun-05 00:30N 52°06' E 002°52'1513.0
2018-Jun-04 23:21N 52°17' E 003°08'512.6
2018-Jun-04 22:59N 52°21' E 003°12'612.3
2018-Jun-04 22:30N 52°26' E 003°18'811.9
2018-Jun-04 21:50N 52°33' E 003°25'611.5
2018-Jun-04 21:20N 52°37' E 003°31'511.4
2018-Jun-04 20:56N 52°41' E 003°36'711.0
2018-Jun-04 20:16N 52°46' E 003°43'310.8
2018-Jun-04 19:59N 52°49' E 003°47'2010.7
2018-Jun-04 18:07N 53°03' E 004°10'211.3
2018-Jun-04 17:54N 53°05' E 004°13'2112.1
2018-Jun-04 16:08N 53°22' E 004°33'212.6
2018-Jun-04 16:00N 53°24' E 004°34'912.1
2018-Jun-04 15:17N 53°29' E 004°46'2012.3
2018-Jun-04 13:38N 53°37' E 005°17'311.2
2018-Jun-04 13:20N 53°38' E 005°23'410.9
2018-Jun-04 13:00N 53°39' E 005°28'  
Track history (hours):
 
Tides and Currents Weather Stations Pressure Air Temp Water Temp Dewpoint Dewpoint Depression Visibility Wind Speed Wind Dir Waves Ship Positions

Sea Explorer

Last reported at 2018-Jun-14 06:39 UTC. Time now 2018-Jun-21 22:09 UTC.
Position N 36°56' E 002°30'.

Length 110 m; draft 7 m.

Type: Cargo ship. MMSI: 210112000.

Date/timePositionNaut miles runAvg speedWind from/ knotsBaromVisibWave heightAir tempDewpointWater temp
2018-Jun-14 06:39N 36°56' E 002°30'4613.5
2018-Jun-14 03:14N 36°49' E 001°32'313.6
2018-Jun-14 03:00N 36°48' E 001°29'813.6
2018-Jun-14 02:26N 36°47' E 001°19'613.5
2018-Jun-14 01:59N 36°46' E 001°11'613.3
2018-Jun-14 01:30N 36°45' E 001°04'713.3
2018-Jun-14 01:00N 36°42' E 000°56'3013.2
2018-Jun-13 22:44N 36°25' E 000°26'513.4
2018-Jun-13 22:21N 36°22' E 000°20'1013.3
2018-Jun-13 21:37N 36°18' E 000°10'213.1
2018-Jun-13 21:30N 36°17' E 000°08'3 5.4
2018-Jun-13 21:00N 36°15' E 000°05'  
2018-Jun-10 00:26N 36°00' W 005°07'614.0
2018-Jun-10 00:00N 35°59' W 005°15'714.2
2018-Jun-09 23:30N 35°58' W 005°23'813.2
2018-Jun-09 22:53N 35°55' W 005°33'283 9.7
2018-Jun-08 17:47N 38°57' W 010°06'311.1
2018-Jun-08 17:29N 39°00' W 010°06'511.4
2018-Jun-08 17:00N 39°06' W 010°06'611.4
2018-Jun-08 16:27N 39°12' W 010°06'  
2018-Jun-06 09:33N 48°54' W 005°42'9611.6
2018-Jun-06 01:19N 49°44' W 003°37'711.3
2018-Jun-06 00:41N 49°47' W 003°27'211.1
2018-Jun-06 00:30N 49°48' W 003°25'510.9
2018-Jun-06 00:00N 49°51' W 003°17'510.8
2018-Jun-05 23:30N 49°54' W 003°10'510.6
2018-Jun-05 22:59N 49°56' W 003°03'510.8
2018-Jun-05 22:30N 49°59' W 002°55'610.9
2018-Jun-05 21:56N 50°01' W 002°46'3812.4
2018-Jun-05 18:52N 50°12' W 001°50'513.9
2018-Jun-05 18:31N 50°13' W 001°42'713.9
2018-Jun-05 18:00N 50°15' W 001°31'813.9
2018-Jun-05 17:28N 50°17' W 001°20'713.8
2018-Jun-05 16:59N 50°18' W 001°10'3212.2
2018-Jun-05 14:22N 50°27' W 000°22'1510.6
2018-Jun-05 12:56N 50°31' E 000°01'410.4
2018-Jun-05 12:30N 50°32' E 000°08'610.5
2018-Jun-05 11:58N 50°34' E 000°17'510.8
2018-Jun-05 11:28N 50°36' E 000°25'511.3
2018-Jun-05 11:00N 50°37' E 000°32'611.9
2018-Jun-05 10:30N 50°40' E 000°41'612.5
2018-Jun-05 10:00N 50°44' E 000°49'712.9
2018-Jun-05 09:30N 50°48' E 000°57'1913.2
2018-Jun-05 08:02N 51°00' E 001°20'012.9
2018-Jun-05 08:00N 51°01' E 001°21'612.6
2018-Jun-05 07:31N 51°05' E 001°28'611.8
2018-Jun-05 07:00N 51°08' E 001°36'510.9
2018-Jun-05 06:30N 51°12' E 001°42'510.5
2018-Jun-05 06:00N 51°16' E 001°47'510.4
2018-Jun-05 05:30N 51°21' E 001°51'510.5
2018-Jun-05 05:00N 51°26' E 001°54'510.7
2018-Jun-05 04:30N 51°30' E 001°59'611.1
2018-Jun-05 03:58N 51°35' E 002°06'511.4
2018-Jun-05 03:30N 51°38' E 002°12'711.4
2018-Jun-05 02:52N 51°44' E 002°19'511.9
2018-Jun-05 02:30N 51°47' E 002°24'912.5
2018-Jun-05 01:47N 51°54' E 002°33'412.9
2018-Jun-05 01:29N 51°57' E 002°37'612.8
2018-Jun-05 01:00N 52°01' E 002°45'713.1
2018-Jun-05 00:30N 52°06' E 002°52'1513.0
2018-Jun-04 23:21N 52°17' E 003°08'512.6
2018-Jun-04 22:59N 52°21' E 003°12'612.3
2018-Jun-04 22:30N 52°26' E 003°18'811.9
2018-Jun-04 21:50N 52°33' E 003°25'611.5
2018-Jun-04 21:20N 52°37' E 003°31'511.4
2018-Jun-04 20:56N 52°41' E 003°36'711.0
2018-Jun-04 20:16N 52°46' E 003°43'310.8
2018-Jun-04 19:59N 52°49' E 003°47'2010.7
2018-Jun-04 18:07N 53°03' E 004°10'211.3
2018-Jun-04 17:54N 53°05' E 004°13'2112.1
2018-Jun-04 16:08N 53°22' E 004°33'212.6
2018-Jun-04 16:00N 53°24' E 004°34'912.1
2018-Jun-04 15:17N 53°29' E 004°46'2012.3
2018-Jun-04 13:38N 53°37' E 005°17'311.2
2018-Jun-04 13:20N 53°38' E 005°23'410.9
2018-Jun-04 13:00N 53°39' E 005°28'  

Dump ship's entire track history